Archer, Iowa
Current Conditions -  °F | °C
As of 6:55 AM on Wednesday 22 Oct 2014 (Local Time) from KSHL Reporting Station
Few Clouds Few Clouds  
Wind Chill: 50°   Ceiling: Unl
Heat Index: 50°   Visibility: 10mi
Dew Point: 43°   Wind: 17mph
Humidity: 76%   Direction: 160°SSE
Pressure: 30.06"   Gusts: 28mph
Location:  43.12°N, 95.75°W
Report Text: KSHL 221155Z AUTO 16015G24KT 10SM FEW043 FEW075 10/06 A3006 RMK AO2
Loading
Personal Weather Stations






























Interactive Weather Map
Tropical Storm Tracking
New forecast layout! Learn more

10-Day Weather Forecast

Advertisements
Track Severe Weather on mobile